createdAt,value
2022-09-23T00:00:27.845Z,4.63
2022-09-23T00:03:32.574Z,4.73
2022-09-23T00:06:36.729Z,4.90
2022-09-23T00:09:39.594Z,3.97
2022-09-23T00:12:42.443Z,5.33
2022-09-23T00:15:46.694Z,4.57
2022-09-23T00:18:50.510Z,5.33
2022-09-23T00:21:56.830Z,4.90
2022-09-23T00:24:59.621Z,5.23
2022-09-23T00:28:03.148Z,5.03
2022-09-23T00:31:07.150Z,5.10
2022-09-23T00:34:12.345Z,5.20
2022-09-23T00:37:16.658Z,5.40
2022-09-23T00:40:19.697Z,5.10
2022-09-23T00:43:38.776Z,5.27
2022-09-23T00:46:44.331Z,5.50
2022-09-23T00:49:50.669Z,5.20
2022-09-23T00:52:57.495Z,5.07
2022-09-23T00:56:07.189Z,5.33
2022-09-23T00:59:11.399Z,5.03
2022-09-23T01:02:16.206Z,4.80
2022-09-23T01:05:19.978Z,5.37
2022-09-23T01:08:24.843Z,5.17
2022-09-23T01:11:43.584Z,5.07
2022-09-23T01:14:56.028Z,5.83
2022-09-23T01:18:06.466Z,6.33
2022-09-23T01:21:30.023Z,5.37
2022-09-23T01:24:48.010Z,5.03
2022-09-23T01:28:03.739Z,5.13
2022-09-23T01:31:13.637Z,5.37
2022-09-23T01:34:24.616Z,5.53
2022-09-23T01:37:36.245Z,5.20
2022-09-23T01:40:48.748Z,4.83
2022-09-23T01:43:59.228Z,5.70
2022-09-23T01:47:10.931Z,5.20
2022-09-23T01:50:37.000Z,4.87
2022-09-23T01:53:46.189Z,3.83
2022-09-23T01:56:52.466Z,4.73
2022-09-23T02:00:00.171Z,4.40
2022-09-23T02:03:13.481Z,4.50
2022-09-23T02:06:20.618Z,4.83
2022-09-23T02:09:26.276Z,5.20
2022-09-23T02:12:35.686Z,4.53
2022-09-23T02:15:44.840Z,4.43
2022-09-23T02:18:54.166Z,4.40
2022-09-23T02:22:05.531Z,4.80
2022-09-23T02:25:09.783Z,4.70
2022-09-23T02:28:17.004Z,4.37
2022-09-23T02:31:29.571Z,4.47
2022-09-23T02:34:44.626Z,4.07
2022-09-23T02:37:54.641Z,4.83
2022-09-23T02:41:04.594Z,4.40
2022-09-23T02:44:10.105Z,4.00
2022-09-23T02:47:12.983Z,4.70
2022-09-23T02:50:19.060Z,4.37
2022-09-23T02:53:24.378Z,4.00
2022-09-23T02:56:28.151Z,3.43
2022-09-23T02:59:32.910Z,4.50
2022-09-23T03:02:51.715Z,4.00
2022-09-23T03:05:59.596Z,3.57
2022-09-23T03:09:11.210Z,3.70
2022-09-23T03:12:17.410Z,3.73
2022-09-23T03:15:26.214Z,3.97
2022-09-23T03:18:34.757Z,3.80
2022-09-23T03:21:42.225Z,4.17
2022-09-23T03:24:50.747Z,4.83
2022-09-23T03:27:59.071Z,3.87
2022-09-23T03:31:01.882Z,4.43
2022-09-23T03:34:10.264Z,4.50
2022-09-23T03:37:19.524Z,4.47
2022-09-23T03:40:29.039Z,4.70
2022-09-23T03:43:36.614Z,4.47
2022-09-23T03:46:44.269Z,4.40
2022-09-23T03:49:48.626Z,4.07
2022-09-23T03:52:52.855Z,4.07
2022-09-23T03:55:55.605Z,3.87
2022-09-23T03:58:58.445Z,3.73
2022-09-23T04:02:01.835Z,4.77
2022-09-23T04:05:05.524Z,4.23
2022-09-23T04:08:09.653Z,4.20
2022-09-23T04:11:12.421Z,4.20
2022-09-23T04:14:15.819Z,4.13
2022-09-23T04:17:18.883Z,4.90
2022-09-23T04:20:21.635Z,4.57
2022-09-23T04:23:26.797Z,4.60
2022-09-23T04:26:29.586Z,3.87
2022-09-23T04:29:32.429Z,4.67
2022-09-23T04:32:35.195Z,4.53
2022-09-23T04:35:40.294Z,4.37
2022-09-23T04:38:45.994Z,4.10
2022-09-23T04:41:48.815Z,4.77
2022-09-23T04:44:51.577Z,4.30
2022-09-23T04:47:54.520Z,3.50
2022-09-23T04:51:03.544Z,4.70
2022-09-23T04:54:07.666Z,4.23
2022-09-23T04:57:10.944Z,4.53
2022-09-23T05:00:15.226Z,4.30
2022-09-23T05:03:17.969Z,5.17
2022-09-23T05:06:21.641Z,4.13
2022-09-23T05:09:26.040Z,4.37
2022-09-23T05:12:28.885Z,4.17
2022-09-23T05:15:31.641Z,3.97
2022-09-23T05:18:35.813Z,5.07
2022-09-23T05:21:39.217Z,5.50
2022-09-23T05:24:43.341Z,4.07
2022-09-23T05:27:46.114Z,4.30
2022-09-23T05:30:48.900Z,6.03
2022-09-23T05:33:53.158Z,5.97
2022-09-23T05:36:55.947Z,6.00
2022-09-23T05:40:00.176Z,6.23
2022-09-23T05:43:03.501Z,5.73
2022-09-23T05:46:08.634Z,6.63
2022-09-23T05:49:11.969Z,5.70
2022-09-23T05:52:14.903Z,6.80
2022-09-23T05:55:19.036Z,7.00
2022-09-23T05:58:23.578Z,6.07
2022-09-23T06:01:28.395Z,6.03
2022-09-23T06:04:31.462Z,6.10
2022-09-23T06:07:34.200Z,5.50
2022-09-23T06:10:39.756Z,6.57
2022-09-23T06:13:42.825Z,5.10
2022-09-23T06:16:45.631Z,5.87
2022-09-23T06:19:48.361Z,5.13
2022-09-23T06:22:54.066Z,5.47
2022-09-23T06:26:03.117Z,4.87
2022-09-23T06:29:11.431Z,4.70
2022-09-23T06:32:14.219Z,5.10
2022-09-23T06:35:26.380Z,4.83
2022-09-23T06:38:30.757Z,5.17
2022-09-23T06:41:34.930Z,4.17
2022-09-23T06:44:37.678Z,3.70
2022-09-23T06:47:40.704Z,3.87
2022-09-23T06:50:44.298Z,5.33
2022-09-23T06:53:48.255Z,4.50
2022-09-23T06:56:52.471Z,4.07
2022-09-23T06:59:55.294Z,3.43
2022-09-23T07:02:58.085Z,3.50
2022-09-23T07:06:01.623Z,3.07
2022-09-23T07:09:04.785Z,3.47
2022-09-23T07:12:09.101Z,5.20
2022-09-23T07:15:12.920Z,4.40
2022-09-23T07:18:15.674Z,4.23
2022-09-23T07:21:19.861Z,4.27
2022-09-23T07:24:22.905Z,3.53
2022-09-23T07:27:29.111Z,3.57
2022-09-23T07:30:32.004Z,3.77
2022-09-23T07:33:35.761Z,3.00
2022-09-23T07:36:40.538Z,3.10
2022-09-23T07:39:44.362Z,3.10
2022-09-23T07:42:48.733Z,3.07
2022-09-23T07:45:52.020Z,3.10
2022-09-23T07:48:55.799Z,3.20
2022-09-23T07:51:58.651Z,3.37
2022-09-23T07:55:01.414Z,3.60
2022-09-23T07:58:05.766Z,2.90
2022-09-23T08:01:10.318Z,3.00
2022-09-23T08:04:17.692Z,2.90
2022-09-23T08:07:20.484Z,2.93
2022-09-23T08:10:23.418Z,3.17
2022-09-23T08:13:27.548Z,3.40
2022-09-23T08:16:30.363Z,2.90
2022-09-23T08:19:33.406Z,2.77
2022-09-23T08:22:36.225Z,3.00
2022-09-23T08:25:39.052Z,2.70
2022-09-23T08:28:44.947Z,2.37
2022-09-23T08:31:48.178Z,2.63
2022-09-23T08:34:50.954Z,2.60
2022-09-23T08:37:53.785Z,2.60
2022-09-23T08:41:06.448Z,2.60
2022-09-23T08:44:17.304Z,2.00
2022-09-23T08:47:24.578Z,1.90
2022-09-23T08:50:31.746Z,2.20
2022-09-23T08:53:36.219Z,2.23
2022-09-23T08:56:39.805Z,2.30
2022-09-23T08:59:45.856Z,3.10
2022-09-23T09:02:49.664Z,2.60
2022-09-23T09:05:54.825Z,2.00
2022-09-23T09:09:00.874Z,2.20
2022-09-23T09:12:11.003Z,1.90
2022-09-23T09:15:17.257Z,1.80
2022-09-23T09:18:21.332Z,2.10
2022-09-23T09:21:29.093Z,2.17
2022-09-23T09:24:35.182Z,1.67
2022-09-23T09:27:40.609Z,1.97
2022-09-23T09:30:48.545Z,1.87
2022-09-23T09:33:57.979Z,1.90
2022-09-23T09:37:07.162Z,1.87
2022-09-23T09:40:13.115Z,2.10
2022-09-23T09:43:23.463Z,2.40
2022-09-23T09:46:52.712Z,3.00
2022-09-23T09:49:59.034Z,3.07
2022-09-23T09:53:16.629Z,2.60
2022-09-23T09:56:26.787Z,2.50
2022-09-23T09:59:30.062Z,2.83
2022-09-23T10:02:37.925Z,3.07
2022-09-23T10:05:50.436Z,2.73
2022-09-23T10:09:14.819Z,2.70
2022-09-23T10:12:20.179Z,2.40
2022-09-23T10:15:33.057Z,2.77
2022-09-23T10:18:39.008Z,2.70
2022-09-23T10:21:42.208Z,2.53
2022-09-23T10:24:50.317Z,2.40
2022-09-23T10:27:53.204Z,2.60
2022-09-23T10:31:06.515Z,2.37
2022-09-23T10:34:24.967Z,2.93
2022-09-23T10:37:39.658Z,2.57
2022-09-23T10:41:02.481Z,2.10
2022-09-23T10:44:39.261Z,1.90
2022-09-23T10:47:52.296Z,2.07
2022-09-23T10:50:59.687Z,2.00
2022-09-23T10:54:11.922Z,1.50
2022-09-23T10:57:42.441Z,1.73
2022-09-23T11:00:56.039Z,1.90
2022-09-23T11:04:25.415Z,2.40
2022-09-23T11:07:37.387Z,2.30
2022-09-23T11:10:55.848Z,1.63
2022-09-23T11:14:17.220Z,2.13
2022-09-23T11:17:44.234Z,2.10
2022-09-23T11:20:58.590Z,2.10
2022-09-23T11:24:18.368Z,2.70
2022-09-23T11:27:31.804Z,3.23
2022-09-23T11:30:42.475Z,2.60
2022-09-23T11:33:56.826Z,2.03
2022-09-23T11:37:06.258Z,2.00
2022-09-23T11:40:18.766Z,1.77
2022-09-23T11:43:24.297Z,1.70
2022-09-23T11:46:33.988Z,2.20
2022-09-23T11:49:43.150Z,2.07
2022-09-23T11:52:50.975Z,2.58
2022-09-23T11:56:03.500Z,2.03
2022-09-23T11:59:15.970Z,2.80
2022-09-23T12:02:30.516Z,2.70
2022-09-23T12:05:40.460Z,2.58
2022-09-23T12:08:44.483Z,2.17
2022-09-23T12:11:52.546Z,2.35
2022-09-23T12:15:00.099Z,2.35
2022-09-23T12:18:35.772Z,2.47
2022-09-23T12:21:56.496Z,2.30
2022-09-23T12:25:10.365Z,2.55
2022-09-23T12:28:18.312Z,2.53
2022-09-23T12:31:30.470Z,2.25
2022-09-23T12:34:41.434Z,2.13
2022-09-23T12:37:44.273Z,2.65
2022-09-23T12:40:47.899Z,2.50
2022-09-23T12:43:57.883Z,2.30
2022-09-23T12:47:31.999Z,2.97
2022-09-23T12:50:52.612Z,2.97
2022-09-23T12:54:14.432Z,2.40
2022-09-23T12:57:42.659Z,2.75
2022-09-23T13:01:09.001Z,3.15
2022-09-23T13:04:52.080Z,2.90
2022-09-23T13:08:02.326Z,2.08
2022-09-23T13:11:08.941Z,3.25
2022-09-23T13:14:15.373Z,3.00
2022-09-23T13:17:33.068Z,2.33
2022-09-23T13:20:38.452Z,2.67
2022-09-23T13:24:17.942Z,2.60
2022-09-23T13:27:26.813Z,2.20
2022-09-23T13:30:31.175Z,2.83
2022-09-23T13:33:42.850Z,2.80
2022-09-23T13:36:47.367Z,2.97
2022-09-23T13:39:50.246Z,2.75
2022-09-23T13:42:58.998Z,2.35
2022-09-23T13:46:05.172Z,2.63
2022-09-23T13:49:22.535Z,2.85
2022-09-23T13:52:29.795Z,2.60
2022-09-23T13:55:37.439Z,2.33
2022-09-23T13:58:41.111Z,3.35
2022-09-23T14:01:46.996Z,2.85
2022-09-23T14:04:50.847Z,2.72
2022-09-23T14:07:54.879Z,2.25
2022-09-23T14:10:58.817Z,2.67
2022-09-23T14:14:07.511Z,2.60
2022-09-23T14:17:18.355Z,2.28
2022-09-23T14:20:22.731Z,2.65
2022-09-23T14:23:25.453Z,2.75
2022-09-23T14:26:28.264Z,2.35
2022-09-23T14:29:33.825Z,2.55
2022-09-23T14:32:40.550Z,1.80
2022-09-23T14:35:47.918Z,2.08
2022-09-23T14:38:52.597Z,2.00
2022-09-23T14:41:56.473Z,3.70
2022-09-23T14:44:59.247Z,2.50
2022-09-23T14:48:08.345Z,2.40
2022-09-23T14:51:16.213Z,2.08
2022-09-23T14:54:35.511Z,2.50
2022-09-23T14:57:39.733Z,2.80
2022-09-23T15:00:52.658Z,2.28
2022-09-23T15:03:58.217Z,2.85
2022-09-23T15:07:05.055Z,2.97
2022-09-23T15:10:09.419Z,3.33
2022-09-23T15:13:16.326Z,2.67
2022-09-23T15:16:27.401Z,2.22
2022-09-23T15:19:32.222Z,2.45
2022-09-23T15:22:44.398Z,2.58
2022-09-23T15:25:52.350Z,2.50
2022-09-23T15:28:58.364Z,1.80
2022-09-23T15:32:01.464Z,2.00
2022-09-23T15:35:06.555Z,2.63
2022-09-23T15:38:10.719Z,2.50
2022-09-23T15:41:14.226Z,2.63
2022-09-23T15:44:18.602Z,2.22
2022-09-23T15:47:22.526Z,2.08
2022-09-23T15:50:27.076Z,1.83
2022-09-23T15:53:31.384Z,2.03
2022-09-23T15:56:34.562Z,2.10
2022-09-23T15:59:38.086Z,2.33
2022-09-23T16:02:41.402Z,1.63
2022-09-23T16:05:47.089Z,2.08
2022-09-23T16:08:50.973Z,1.92
2022-09-23T16:11:54.307Z,2.35
2022-09-23T16:14:57.496Z,2.00
2022-09-23T16:18:00.895Z,2.33
2022-09-23T16:21:07.533Z,1.80
2022-09-23T16:24:16.693Z,1.60
2022-09-23T16:27:20.472Z,1.75
2022-09-23T16:30:23.405Z,1.77
2022-09-23T16:33:27.650Z,1.85
2022-09-23T16:36:33.431Z,2.42
2022-09-23T16:39:36.182Z,2.35
2022-09-23T16:42:39.237Z,1.92
2022-09-23T16:45:42.017Z,2.58
2022-09-23T16:48:51.334Z,2.05
2022-09-23T16:51:56.599Z,2.33
2022-09-23T16:54:59.679Z,2.20
2022-09-23T16:58:02.480Z,1.85
2022-09-23T17:01:24.459Z,2.73
2022-09-23T17:04:27.827Z,2.17
2022-09-23T17:07:32.211Z,1.93
2022-09-23T17:10:35.050Z,2.10
2022-09-23T17:13:40.725Z,2.63
2022-09-23T17:16:43.791Z,3.20
2022-09-23T17:19:46.886Z,3.13
2022-09-23T17:22:51.028Z,3.00
2022-09-23T17:25:54.350Z,3.43
2022-09-23T17:28:59.272Z,3.00
2022-09-23T17:32:02.587Z,2.80
2022-09-23T17:35:05.987Z,3.07
2022-09-23T17:38:10.083Z,3.03
2022-09-23T17:41:15.364Z,2.90
2022-09-23T17:44:18.126Z,3.67
2022-09-23T17:47:21.106Z,3.10
2022-09-23T17:50:23.903Z,4.30
2022-09-23T17:53:30.983Z,5.00
2022-09-23T17:56:34.124Z,5.50
2022-09-23T17:59:36.909Z,5.17
2022-09-23T18:02:39.708Z,3.87
2022-09-23T18:05:42.963Z,4.50
2022-09-23T18:08:49.894Z,4.07
2022-09-23T18:11:52.611Z,4.70
2022-09-23T18:14:55.398Z,4.77
2022-09-23T18:17:58.117Z,6.03
2022-09-23T18:21:01.671Z,6.90
2022-09-23T18:24:28.592Z,6.47
2022-09-23T18:27:29.439Z,8.33
2022-09-23T18:30:33.430Z,7.67
2022-09-23T18:33:36.370Z,8.03
2022-09-23T18:36:40.459Z,7.33
2022-09-23T18:39:44.899Z,7.37
2022-09-23T18:42:47.665Z,6.87
2022-09-23T18:45:57.967Z,8.27
2022-09-23T18:49:18.481Z,8.07
2022-09-23T18:52:22.191Z,7.63
2022-09-23T18:55:26.930Z,8.90
2022-09-23T18:58:29.698Z,7.90
2022-09-23T19:01:33.163Z,9.43
2022-09-23T19:04:35.973Z,9.33
2022-09-23T19:07:38.778Z,9.23
2022-09-23T19:10:43.486Z,8.67
2022-09-23T19:13:46.385Z,8.40
2022-09-23T19:16:50.930Z,11.23
2022-09-23T19:19:53.900Z,12.17
2022-09-23T19:22:56.701Z,11.07
2022-09-23T19:26:04.408Z,11.17
2022-09-23T19:29:09.157Z,11.00
2022-09-23T19:32:15.822Z,11.57
2022-09-23T19:35:18.612Z,10.20
2022-09-23T19:38:22.120Z,9.07
2022-09-23T19:41:28.192Z,8.37
2022-09-23T19:44:31.716Z,8.57
2022-09-23T19:47:37.670Z,9.30
2022-09-23T19:50:41.501Z,8.20
2022-09-23T19:53:45.479Z,8.80
2022-09-23T19:56:50.071Z,9.03
2022-09-23T19:59:52.814Z,9.57
2022-09-23T20:02:56.694Z,9.20
2022-09-23T20:05:59.514Z,10.20
2022-09-23T20:09:02.995Z,9.83
2022-09-23T20:12:07.145Z,9.97
2022-09-23T20:15:11.670Z,10.57
2022-09-23T20:18:14.505Z,9.83
2022-09-23T20:21:17.287Z,9.90
2022-09-23T20:24:20.095Z,11.93
2022-09-23T20:27:24.491Z,11.13
2022-09-23T20:30:29.043Z,11.33
2022-09-23T20:33:31.843Z,12.60
2022-09-23T20:36:35.474Z,12.90
2022-09-23T20:39:39.258Z,12.20
2022-09-23T20:42:44.164Z,12.50
2022-09-23T20:45:51.444Z,12.00
2022-09-23T20:48:56.140Z,11.93
2022-09-23T20:51:59.800Z,11.30
2022-09-23T20:55:03.003Z,13.43
2022-09-23T20:58:07.759Z,13.20
2022-09-23T21:01:12.195Z,13.53
2022-09-23T21:04:15.589Z,12.33
2022-09-23T21:07:18.762Z,11.93
2022-09-23T21:10:22.702Z,10.97
2022-09-23T21:13:27.430Z,10.57
2022-09-23T21:16:31.069Z,10.20
2022-09-23T21:19:35.256Z,10.43
2022-09-23T21:22:38.829Z,9.93
2022-09-23T21:25:44.945Z,9.27
2022-09-23T21:28:50.623Z,10.30
2022-09-23T21:31:54.087Z,9.77
2022-09-23T21:34:57.609Z,8.67
2022-09-23T21:38:01.697Z,10.93
2022-09-23T21:41:06.220Z,8.83
2022-09-23T21:44:11.422Z,7.80
2022-09-23T21:47:17.051Z,8.63
2022-09-23T21:50:20.565Z,9.00
2022-09-23T21:53:23.959Z,8.30
2022-09-23T21:56:28.168Z,8.83
2022-09-23T21:59:32.338Z,8.80
2022-09-23T22:02:35.460Z,8.67
2022-09-23T22:05:43.891Z,8.90
2022-09-23T22:08:46.684Z,8.17
2022-09-23T22:12:09.814Z,8.77
2022-09-23T22:15:14.267Z,9.10
2022-09-23T22:18:19.245Z,8.20
2022-09-23T22:21:23.160Z,8.60
2022-09-23T22:24:25.927Z,8.00
2022-09-23T22:27:28.678Z,7.67
2022-09-23T22:30:50.208Z,9.03
2022-09-23T22:33:52.968Z,7.97
2022-09-23T22:36:56.581Z,7.60
2022-09-23T22:39:59.422Z,8.40
2022-09-23T22:43:02.482Z,8.10
2022-09-23T22:46:06.574Z,7.60
2022-09-23T22:49:09.355Z,7.27
2022-09-23T22:52:12.395Z,6.67
2022-09-23T22:55:15.206Z,7.57
2022-09-23T22:58:31.773Z,6.87
2022-09-23T23:01:37.402Z,7.63
2022-09-23T23:04:40.287Z,7.43
2022-09-23T23:07:43.122Z,6.70
2022-09-23T23:10:45.992Z,6.70
2022-09-23T23:13:48.858Z,7.40
2022-09-23T23:16:55.252Z,7.03
2022-09-23T23:19:58.384Z,6.13
2022-09-23T23:23:02.229Z,7.63
2022-09-23T23:26:09.977Z,6.83
2022-09-23T23:29:15.198Z,6.43
2022-09-23T23:32:19.269Z,6.73
2022-09-23T23:35:22.033Z,6.80
2022-09-23T23:38:24.850Z,7.23
2022-09-23T23:41:28.771Z,7.10
2022-09-23T23:44:34.262Z,6.43
2022-09-23T23:47:38.638Z,6.33
2022-09-23T23:50:41.511Z,5.97
2022-09-23T23:53:44.534Z,6.10
2022-09-23T23:56:47.291Z,6.43
2022-09-23T23:59:50.085Z,5.20
